sensor_id;sensor_type;location;lat;lon;timestamp;pressure;altitude;pressure_sealevel;temperature
38249;BMP280;24045;51.138;17.126;2023-04-10T00:13:45;101203.25;;;6.31
38249;BMP280;24045;51.138;17.126;2023-04-10T00:28:47;101192.36;;;6.23
38249;BMP280;24045;51.138;17.126;2023-04-10T00:43:54;101181.52;;;6.00
38249;BMP280;24045;51.138;17.126;2023-04-10T00:58:57;101178.36;;;5.73
38249;BMP280;24045;51.138;17.126;2023-04-10T01:14:33;101180.15;;;5.62
38249;BMP280;24045;51.138;17.126;2023-04-10T01:29:40;101188.77;;;5.54
38249;BMP280;24045;51.138;17.126;2023-04-10T01:44:47;101185.48;;;5.55
38249;BMP280;24045;51.138;17.126;2023-04-10T01:59:51;101189.71;;;5.53
38249;BMP280;24045;51.138;17.126;2023-04-10T02:14:54;101191.73;;;5.50
38249;BMP280;24045;51.138;17.126;2023-04-10T02:30:04;101196.21;;;5.48
38249;BMP280;24045;51.138;17.126;2023-04-10T02:45:08;101191.35;;;5.51
38249;BMP280;24045;51.138;17.126;2023-04-10T03:00:11;101190.35;;;5.52
38249;BMP280;24045;51.138;17.126;2023-04-10T03:15:14;101194.79;;;5.53
38249;BMP280;24045;51.138;17.126;2023-04-10T03:30:17;101192.70;;;5.63
38249;BMP280;24045;51.138;17.126;2023-04-10T03:45:20;101192.23;;;5.73
38249;BMP280;24045;51.138;17.126;2023-04-10T04:00:23;101177.56;;;5.84
38249;BMP280;24045;51.138;17.126;2023-04-10T04:15:26;101185.92;;;5.91
38249;BMP280;24045;51.138;17.126;2023-04-10T04:30:28;101203.02;;;5.99
38249;BMP280;24045;51.138;17.126;2023-04-10T04:45:31;101202.38;;;6.07
38249;BMP280;24045;51.138;17.126;2023-04-10T05:00:34;101208.01;;;6.23
38249;BMP280;24045;51.138;17.126;2023-04-10T05:15:36;101219.53;;;6.42
38249;BMP280;24045;51.138;17.126;2023-04-10T05:30:39;101245.54;;;6.65
38249;BMP280;24045;51.138;17.126;2023-04-10T05:45:45;101265.48;;;6.68
38249;BMP280;24045;51.138;17.126;2023-04-10T06:00:47;101275.48;;;6.79
38249;BMP280;24045;51.138;17.126;2023-04-10T06:15:50;101260.75;;;7.09
38249;BMP280;24045;51.138;17.126;2023-04-10T06:30:53;101273.86;;;7.28
38249;BMP280;24045;51.138;17.126;2023-04-10T06:45:56;101276.40;;;7.41
38249;BMP280;24045;51.138;17.126;2023-04-10T07:00:58;101293.48;;;7.70
38249;BMP280;24045;51.138;17.126;2023-04-10T07:16:07;101301.91;;;7.50
38249;BMP280;24045;51.138;17.126;2023-04-10T07:31:10;101297.67;;;8.06
38249;BMP280;24045;51.138;17.126;2023-04-10T07:46:14;101293.32;;;8.75
38249;BMP280;24045;51.138;17.126;2023-04-10T08:01:17;101295.98;;;9.17
38249;BMP280;24045;51.138;17.126;2023-04-10T08:16:23;101286.00;;;9.55
38249;BMP280;24045;51.138;17.126;2023-04-10T08:31:27;101293.95;;;9.82
38249;BMP280;24045;51.138;17.126;2023-04-10T08:46:32;101281.41;;;10.25
38249;BMP280;24045;51.138;17.126;2023-04-10T09:01:38;101281.46;;;10.40
38249;BMP280;24045;51.138;17.126;2023-04-10T09:16:42;101279.55;;;11.04
38249;BMP280;24045;51.138;17.126;2023-04-10T09:31:44;101270.59;;;11.81
38249;BMP280;24045;51.138;17.126;2023-04-10T09:46:47;101254.34;;;12.63
38249;BMP280;24045;51.138;17.126;2023-04-10T10:01:51;101237.59;;;13.87
38249;BMP280;24045;51.138;17.126;2023-04-10T10:16:55;101213.27;;;14.08
38249;BMP280;24045;51.138;17.126;2023-04-10T10:32:02;101196.30;;;13.33
38249;BMP280;24045;51.138;17.126;2023-04-10T10:47:20;101180.77;;;13.88
38249;BMP280;24045;51.138;17.126;2023-04-10T11:02:24;101168.02;;;14.28
38249;BMP280;24045;51.138;17.126;2023-04-10T11:32:52;101137.77;;;14.74
38249;BMP280;24045;51.138;17.126;2023-04-10T11:47:55;101110.70;;;14.67
38249;BMP280;24045;51.138;17.126;2023-04-10T12:02:58;101095.25;;;14.92
38249;BMP280;24045;51.138;17.126;2023-04-10T12:18:01;101091.43;;;15.57
38249;BMP280;24045;51.138;17.126;2023-04-10T12:33:04;101075.52;;;15.90
38249;BMP280;24045;51.138;17.126;2023-04-10T12:48:09;101062.70;;;16.65
38249;BMP280;24045;51.138;17.126;2023-04-10T13:03:11;101056.74;;;16.90
38249;BMP280;24045;51.138;17.126;2023-04-10T13:18:14;101033.64;;;17.12
38249;BMP280;24045;51.138;17.126;2023-04-10T13:33:17;101013.92;;;16.42
38249;BMP280;24045;51.138;17.126;2023-04-10T13:48:20;100997.26;;;15.07
38249;BMP280;24045;51.138;17.126;2023-04-10T14:03:31;100972.71;;;14.94
38249;BMP280;24045;51.138;17.126;2023-04-10T14:18:35;100955.65;;;15.61
38249;BMP280;24045;51.138;17.126;2023-04-10T14:33:38;100935.22;;;15.04
38249;BMP280;24045;51.138;17.126;2023-04-10T14:48:41;100909.73;;;14.77
38249;BMP280;24045;51.138;17.126;2023-04-10T15:03:47;100892.80;;;14.60
38249;BMP280;24045;51.138;17.126;2023-04-10T15:18:50;100869.83;;;14.54
38249;BMP280;24045;51.138;17.126;2023-04-10T15:33:53;100858.21;;;14.43
38249;BMP280;24045;51.138;17.126;2023-04-10T15:48:57;100838.61;;;14.34
38249;BMP280;24045;51.138;17.126;2023-04-10T16:04:00;100824.30;;;14.23
38249;BMP280;24045;51.138;17.126;2023-04-10T16:19:03;100802.39;;;14.07
38249;BMP280;24045;51.138;17.126;2023-04-10T16:34:06;100783.11;;;13.87
38249;BMP280;24045;51.138;17.126;2023-04-10T16:49:09;100768.23;;;13.73
38249;BMP280;24045;51.138;17.126;2023-04-10T17:04:12;100741.20;;;13.48
38249;BMP280;24045;51.138;17.126;2023-04-10T17:19:14;100717.41;;;13.25
38249;BMP280;24045;51.138;17.126;2023-04-10T17:34:19;100716.11;;;12.83
38249;BMP280;24045;51.138;17.126;2023-04-10T17:49:21;100724.79;;;12.36
38249;BMP280;24045;51.138;17.126;2023-04-10T18:04:24;100719.10;;;11.60
38249;BMP280;24045;51.138;17.126;2023-04-10T18:19:27;100705.88;;;10.86
38249;BMP280;24045;51.138;17.126;2023-04-10T18:34:32;100709.98;;;10.19
38249;BMP280;24045;51.138;17.126;2023-04-10T18:49:35;100712.28;;;9.67
38249;BMP280;24045;51.138;17.126;2023-04-10T19:04:38;100715.14;;;9.54
38249;BMP280;24045;51.138;17.126;2023-04-10T19:19:41;100705.17;;;9.03
38249;BMP280;24045;51.138;17.126;2023-04-10T19:34:44;100697.98;;;8.67
38249;BMP280;24045;51.138;17.126;2023-04-10T19:49:53;100691.38;;;8.61
38249;BMP280;24045;51.138;17.126;2023-04-10T20:04:55;100691.98;;;7.94
38249;BMP280;24045;51.138;17.126;2023-04-10T20:20:02;100667.30;;;7.40
38249;BMP280;24045;51.138;17.126;2023-04-10T20:35:05;100647.23;;;7.01
38249;BMP280;24045;51.138;17.126;2023-04-10T20:50:08;100627.94;;;7.01
38249;BMP280;24045;51.138;17.126;2023-04-10T21:05:14;100608.29;;;7.33
38249;BMP280;24045;51.138;17.126;2023-04-10T21:20:16;100581.89;;;7.77
38249;BMP280;24045;51.138;17.126;2023-04-10T21:35:21;100562.25;;;7.72
38249;BMP280;24045;51.138;17.126;2023-04-10T21:50:25;100556.20;;;7.74
38249;BMP280;24045;51.138;17.126;2023-04-10T22:05:27;100537.20;;;7.64
38249;BMP280;24045;51.138;17.126;2023-04-10T22:20:30;100522.92;;;7.37
38249;BMP280;24045;51.138;17.126;2023-04-10T22:35:33;100491.83;;;7.21
38249;BMP280;24045;51.138;17.126;2023-04-10T22:50:36;100462.56;;;7.18
38249;BMP280;24045;51.138;17.126;2023-04-10T23:05:38;100452.11;;;7.11
38249;BMP280;24045;51.138;17.126;2023-04-10T23:20:41;100439.48;;;6.95
38249;BMP280;24045;51.138;17.126;2023-04-10T23:35:44;100415.83;;;6.95
38249;BMP280;24045;51.138;17.126;2023-04-10T23:50:47;100391.77;;;6.79
